sensor_id;sensor_type;location;lat;lon;timestamp;P1;durP1;ratioP1;P2;durP2;ratioP2
8331;SDS011;4203;48.144;14.118;2022-07-24T00:01:11;7.57;;;6.90;;
8331;SDS011;4203;48.144;14.118;2022-07-24T00:03:38;7.93;;;7.22;;
8331;SDS011;4203;48.144;14.118;2022-07-24T00:06:05;7.72;;;7.13;;
8331;SDS011;4203;48.144;14.118;2022-07-24T00:08:32;8.27;;;7.47;;
8331;SDS011;4203;48.144;14.118;2022-07-24T00:10:59;8.38;;;7.68;;
8331;SDS011;4203;48.144;14.118;2022-07-24T00:13:27;7.55;;;6.95;;
8331;SDS011;4203;48.144;14.118;2022-07-24T00:15:55;7.63;;;6.93;;
8331;SDS011;4203;48.144;14.118;2022-07-24T00:18:22;7.43;;;6.82;;
8331;SDS011;4203;48.144;14.118;2022-07-24T00:20:50;7.57;;;6.88;;
8331;SDS011;4203;48.144;14.118;2022-07-24T00:23:17;7.82;;;7.15;;
8331;SDS011;4203;48.144;14.118;2022-07-24T00:25:44;9.18;;;7.93;;
8331;SDS011;4203;48.144;14.118;2022-07-24T00:28:11;7.68;;;6.97;;
8331;SDS011;4203;48.144;14.118;2022-07-24T00:30:38;8.65;;;7.72;;
8331;SDS011;4203;48.144;14.118;2022-07-24T00:33:07;8.35;;;7.45;;
8331;SDS011;4203;48.144;14.118;2022-07-24T00:35:34;8.40;;;7.70;;
8331;SDS011;4203;48.144;14.118;2022-07-24T00:38:02;8.80;;;7.43;;
8331;SDS011;4203;48.144;14.118;2022-07-24T00:40:29;7.93;;;7.22;;
8331;SDS011;4203;48.144;14.118;2022-07-24T00:42:57;8.27;;;7.47;;
8331;SDS011;4203;48.144;14.118;2022-07-24T00:45:24;11.07;;;8.50;;
8331;SDS011;4203;48.144;14.118;2022-07-24T00:47:51;9.50;;;8.52;;
8331;SDS011;4203;48.144;14.118;2022-07-24T00:50:20;8.90;;;8.13;;
8331;SDS011;4203;48.144;14.118;2022-07-24T00:52:48;9.30;;;8.25;;
8331;SDS011;4203;48.144;14.118;2022-07-24T00:55:16;9.32;;;8.40;;
8331;SDS011;4203;48.144;14.118;2022-07-24T00:57:43;8.80;;;7.90;;
8331;SDS011;4203;48.144;14.118;2022-07-24T01:00:14;8.20;;;7.50;;
8331;SDS011;4203;48.144;14.118;2022-07-24T01:02:43;9.02;;;8.23;;
8331;SDS011;4203;48.144;14.118;2022-07-24T01:05:10;8.60;;;7.72;;
8331;SDS011;4203;48.144;14.118;2022-07-24T01:07:39;8.50;;;7.80;;
8331;SDS011;4203;48.144;14.118;2022-07-24T01:10:07;8.35;;;7.65;;
8331;SDS011;4203;48.144;14.118;2022-07-24T01:12:35;7.65;;;6.97;;
8331;SDS011;4203;48.144;14.118;2022-07-24T01:15:05;9.18;;;8.27;;
8331;SDS011;4203;48.144;14.118;2022-07-24T01:17:34;9.27;;;8.48;;
8331;SDS011;4203;48.144;14.118;2022-07-24T01:20:03;11.10;;;8.02;;
8331;SDS011;4203;48.144;14.118;2022-07-24T01:22:34;8.77;;;7.97;;
8331;SDS011;4203;48.144;14.118;2022-07-24T01:25:01;9.32;;;7.93;;
8331;SDS011;4203;48.144;14.118;2022-07-24T01:27:29;8.90;;;8.00;;
8331;SDS011;4203;48.144;14.118;2022-07-24T01:29:56;8.30;;;7.43;;
8331;SDS011;4203;48.144;14.118;2022-07-24T01:32:23;9.00;;;8.10;;
8331;SDS011;4203;48.144;14.118;2022-07-24T01:34:50;9.77;;;8.65;;
8331;SDS011;4203;48.144;14.118;2022-07-24T01:37:17;9.43;;;8.32;;
8331;SDS011;4203;48.144;14.118;2022-07-24T01:39:46;9.38;;;8.48;;
8331;SDS011;4203;48.144;14.118;2022-07-24T01:42:13;9.07;;;8.27;;
8331;SDS011;4203;48.144;14.118;2022-07-24T01:44:40;9.43;;;8.35;;
8331;SDS011;4203;48.144;14.118;2022-07-24T01:47:08;11.90;;;8.15;;
8331;SDS011;4203;48.144;14.118;2022-07-24T01:49:35;9.15;;;8.35;;
8331;SDS011;4203;48.144;14.118;2022-07-24T01:52:02;9.55;;;8.60;;
8331;SDS011;4203;48.144;14.118;2022-07-24T01:54:30;10.07;;;9.15;;
8331;SDS011;4203;48.144;14.118;2022-07-24T01:56:58;10.05;;;8.85;;
8331;SDS011;4203;48.144;14.118;2022-07-24T01:59:25;10.32;;;8.52;;
8331;SDS011;4203;48.144;14.118;2022-07-24T02:01:53;10.30;;;9.27;;
8331;SDS011;4203;48.144;14.118;2022-07-24T02:04:20;10.13;;;8.38;;
8331;SDS011;4203;48.144;14.118;2022-07-24T02:06:47;9.27;;;8.35;;
8331;SDS011;4203;48.144;14.118;2022-07-24T02:09:14;10.15;;;9.00;;
8331;SDS011;4203;48.144;14.118;2022-07-24T02:11:41;9.80;;;8.88;;
8331;SDS011;4203;48.144;14.118;2022-07-24T02:14:10;9.65;;;8.65;;
8331;SDS011;4203;48.144;14.118;2022-07-24T02:16:37;9.35;;;8.25;;
8331;SDS011;4203;48.144;14.118;2022-07-24T02:19:05;9.70;;;8.80;;
8331;SDS011;4203;48.144;14.118;2022-07-24T02:21:32;9.75;;;8.95;;
8331;SDS011;4203;48.144;14.118;2022-07-24T02:23:59;9.38;;;8.48;;
8331;SDS011;4203;48.144;14.118;2022-07-24T02:26:26;9.95;;;8.80;;
8331;SDS011;4203;48.144;14.118;2022-07-24T02:28:53;9.50;;;8.60;;
8331;SDS011;4203;48.144;14.118;2022-07-24T02:31:22;9.05;;;8.23;;
8331;SDS011;4203;48.144;14.118;2022-07-24T02:33:49;10.35;;;9.27;;
8331;SDS011;4203;48.144;14.118;2022-07-24T02:36:17;10.70;;;8.93;;
8331;SDS011;4203;48.144;14.118;2022-07-24T02:38:44;8.80;;;7.95;;
8331;SDS011;4203;48.144;14.118;2022-07-24T02:41:11;11.43;;;8.95;;
8331;SDS011;4203;48.144;14.118;2022-07-24T02:43:38;9.73;;;8.63;;
8331;SDS011;4203;48.144;14.118;2022-07-24T02:46:05;9.05;;;8.25;;
8331;SDS011;4203;48.144;14.118;2022-07-24T02:48:34;9.65;;;8.65;;
8331;SDS011;4203;48.144;14.118;2022-07-24T02:51:01;9.80;;;8.90;;
8331;SDS011;4203;48.144;14.118;2022-07-24T02:53:30;11.45;;;9.50;;
8331;SDS011;4203;48.144;14.118;2022-07-24T02:55:58;11.70;;;8.18;;
8331;SDS011;4203;48.144;14.118;2022-07-24T02:58:25;9.90;;;8.77;;
8331;SDS011;4203;48.144;14.118;2022-07-24T03:00:52;8.90;;;8.00;;
8331;SDS011;4203;48.144;14.118;2022-07-24T03:03:19;8.55;;;7.75;;
8331;SDS011;4203;48.144;14.118;2022-07-24T03:05:48;9.25;;;8.13;;
8331;SDS011;4203;48.144;14.118;2022-07-24T03:08:15;9.35;;;8.52;;
8331;SDS011;4203;48.144;14.118;2022-07-24T03:10:42;10.13;;;9.15;;
8331;SDS011;4203;48.144;14.118;2022-07-24T03:13:09;10.35;;;9.27;;
8331;SDS011;4203;48.144;14.118;2022-07-24T03:15:37;10.93;;;9.27;;
8331;SDS011;4203;48.144;14.118;2022-07-24T03:18:04;9.23;;;8.35;;
8331;SDS011;4203;48.144;14.118;2022-07-24T03:20:31;9.48;;;8.52;;
8331;SDS011;4203;48.144;14.118;2022-07-24T03:23:00;9.80;;;8.90;;
8331;SDS011;4203;48.144;14.118;2022-07-24T03:25:27;10.00;;;9.13;;
8331;SDS011;4203;48.144;14.118;2022-07-24T03:27:54;9.95;;;8.45;;
8331;SDS011;4203;48.144;14.118;2022-07-24T03:30:22;8.88;;;7.97;;
8331;SDS011;4203;48.144;14.118;2022-07-24T03:32:50;11.25;;;9.68;;
8331;SDS011;4203;48.144;14.118;2022-07-24T03:35:17;10.55;;;9.55;;
8331;SDS011;4203;48.144;14.118;2022-07-24T03:37:44;9.95;;;9.05;;
8331;SDS011;4203;48.144;14.118;2022-07-24T03:40:13;11.45;;;9.85;;
8331;SDS011;4203;48.144;14.118;2022-07-24T03:42:40;10.13;;;9.07;;
8331;SDS011;4203;48.144;14.118;2022-07-24T03:45:07;9.23;;;8.32;;
8331;SDS011;4203;48.144;14.118;2022-07-24T03:47:35;10.45;;;9.45;;
8331;SDS011;4203;48.144;14.118;2022-07-24T03:50:03;10.75;;;9.35;;
8331;SDS011;4203;48.144;14.118;2022-07-24T03:52:31;10.15;;;9.15;;
8331;SDS011;4203;48.144;14.118;2022-07-24T03:54:58;9.70;;;8.80;;
8331;SDS011;4203;48.144;14.118;2022-07-24T03:57:27;9.60;;;8.70;;
8331;SDS011;4203;48.144;14.118;2022-07-24T03:59:54;9.73;;;8.52;;
8331;SDS011;4203;48.144;14.118;2022-07-24T04:02:21;8.88;;;8.13;;
8331;SDS011;4203;48.144;14.118;2022-07-24T04:04:48;9.35;;;8.52;;
8331;SDS011;4203;48.144;14.118;2022-07-24T04:07:16;9.73;;;8.82;;
8331;SDS011;4203;48.144;14.118;2022-07-24T04:09:43;10.25;;;9.10;;
8331;SDS011;4203;48.144;14.118;2022-07-24T04:12:10;9.50;;;8.48;;
8331;SDS011;4203;48.144;14.118;2022-07-24T04:14:39;10.07;;;9.07;;
8331;SDS011;4203;48.144;14.118;2022-07-24T04:17:06;10.95;;;9.25;;
8331;SDS011;4203;48.144;14.118;2022-07-24T04:19:33;10.57;;;9.27;;
8331;SDS011;4203;48.144;14.118;2022-07-24T04:22:00;11.60;;;10.02;;
8331;SDS011;4203;48.144;14.118;2022-07-24T04:24:27;10.00;;;8.73;;
8331;SDS011;4203;48.144;14.118;2022-07-24T04:26:55;10.73;;;9.25;;
8331;SDS011;4203;48.144;14.118;2022-07-24T04:29:22;12.25;;;9.77;;
8331;SDS011;4203;48.144;14.118;2022-07-24T04:31:50;12.57;;;9.73;;
8331;SDS011;4203;48.144;14.118;2022-07-24T04:34:18;10.32;;;9.23;;
8331;SDS011;4203;48.144;14.118;2022-07-24T04:36:45;10.45;;;9.50;;
8331;SDS011;4203;48.144;14.118;2022-07-24T04:39:12;9.10;;;8.20;;
8331;SDS011;4203;48.144;14.118;2022-07-24T04:41:39;11.07;;;9.90;;
8331;SDS011;4203;48.144;14.118;2022-07-24T04:44:07;9.35;;;8.57;;
8331;SDS011;4203;48.144;14.118;2022-07-24T04:46:34;9.73;;;8.77;;
8331;SDS011;4203;48.144;14.118;2022-07-24T04:49:02;9.93;;;9.07;;
8331;SDS011;4203;48.144;14.118;2022-07-24T04:51:30;9.30;;;8.20;;
8331;SDS011;4203;48.144;14.118;2022-07-24T04:53:57;9.82;;;8.82;;
8331;SDS011;4203;48.144;14.118;2022-07-24T04:56:24;10.93;;;8.90;;
8331;SDS011;4203;48.144;14.118;2022-07-24T04:58:55;10.35;;;9.45;;
8331;SDS011;4203;48.144;14.118;2022-07-24T05:01:22;10.43;;;8.90;;
8331;SDS011;4203;48.144;14.118;2022-07-24T05:03:50;16.15;;;9.38;;
8331;SDS011;4203;48.144;14.118;2022-07-24T05:06:18;13.10;;;9.13;;
8331;SDS011;4203;48.144;14.118;2022-07-24T05:08:46;15.90;;;10.05;;
8331;SDS011;4203;48.144;14.118;2022-07-24T05:11:13;11.75;;;8.88;;
8331;SDS011;4203;48.144;14.118;2022-07-24T05:13:40;14.48;;;9.15;;
8331;SDS011;4203;48.144;14.118;2022-07-24T05:16:07;9.85;;;8.75;;
8331;SDS011;4203;48.144;14.118;2022-07-24T05:18:34;9.95;;;9.02;;
8331;SDS011;4203;48.144;14.118;2022-07-24T05:21:02;12.45;;;9.82;;
8331;SDS011;4203;48.144;14.118;2022-07-24T05:23:30;9.60;;;8.70;;
8331;SDS011;4203;48.144;14.118;2022-07-24T05:25:57;9.13;;;8.15;;
8331;SDS011;4203;48.144;14.118;2022-07-24T05:28:25;9.00;;;7.70;;
8331;SDS011;4203;48.144;14.118;2022-07-24T05:30:52;9.43;;;7.80;;
8331;SDS011;4203;48.144;14.118;2022-07-24T05:33:19;7.80;;;7.00;;
8331;SDS011;4203;48.144;14.118;2022-07-24T05:35:46;7.95;;;7.25;;
8331;SDS011;4203;48.144;14.118;2022-07-24T05:38:13;8.80;;;7.88;;
8331;SDS011;4203;48.144;14.118;2022-07-24T05:40:42;8.20;;;7.57;;
8331;SDS011;4203;48.144;14.118;2022-07-24T05:43:09;8.65;;;7.93;;
8331;SDS011;4203;48.144;14.118;2022-07-24T05:45:36;10.73;;;7.60;;
8331;SDS011;4203;48.144;14.118;2022-07-24T05:48:04;7.68;;;7.05;;
8331;SDS011;4203;48.144;14.118;2022-07-24T05:50:31;8.75;;;7.95;;
8331;SDS011;4203;48.144;14.118;2022-07-24T05:52:59;8.48;;;7.78;;
8331;SDS011;4203;48.144;14.118;2022-07-24T05:55:26;6.93;;;6.40;;
8331;SDS011;4203;48.144;14.118;2022-07-24T05:57:55;9.18;;;8.13;;
8331;SDS011;4203;48.144;14.118;2022-07-24T06:00:22;8.45;;;7.57;;
8331;SDS011;4203;48.144;14.118;2022-07-24T06:02:50;9.15;;;8.35;;
8331;SDS011;4203;48.144;14.118;2022-07-24T06:05:17;8.63;;;7.82;;
8331;SDS011;4203;48.144;14.118;2022-07-24T06:07:44;8.93;;;8.00;;
8331;SDS011;4203;48.144;14.118;2022-07-24T06:10:12;8.95;;;8.05;;
8331;SDS011;4203;48.144;14.118;2022-07-24T06:12:40;9.20;;;8.40;;
8331;SDS011;4203;48.144;14.118;2022-07-24T06:15:09;8.55;;;7.85;;
8331;SDS011;4203;48.144;14.118;2022-07-24T06:17:36;8.63;;;7.63;;
8331;SDS011;4203;48.144;14.118;2022-07-24T06:20:04;8.70;;;7.90;;
8331;SDS011;4203;48.144;14.118;2022-07-24T06:22:32;8.80;;;8.05;;
8331;SDS011;4203;48.144;14.118;2022-07-24T06:24:59;7.80;;;7.20;;
8331;SDS011;4203;48.144;14.118;2022-07-24T06:27:26;12.77;;;7.95;;
8331;SDS011;4203;48.144;14.118;2022-07-24T06:29:53;8.27;;;7.57;;
8331;SDS011;4203;48.144;14.118;2022-07-24T06:32:22;8.20;;;7.50;;
8331;SDS011;4203;48.144;14.118;2022-07-24T06:34:49;10.48;;;8.23;;
8331;SDS011;4203;48.144;14.118;2022-07-24T06:37:16;8.70;;;7.97;;
8331;SDS011;4203;48.144;14.118;2022-07-24T06:39:43;9.05;;;8.18;;
8331;SDS011;4203;48.144;14.118;2022-07-24T06:42:10;8.75;;;8.02;;
8331;SDS011;4203;48.144;14.118;2022-07-24T06:44:38;8.75;;;7.97;;
8331;SDS011;4203;48.144;14.118;2022-07-24T06:47:05;11.98;;;9.32;;
8331;SDS011;4203;48.144;14.118;2022-07-24T06:49:33;8.65;;;7.85;;
8331;SDS011;4203;48.144;14.118;2022-07-24T06:52:01;9.10;;;8.40;;
8331;SDS011;4203;48.144;14.118;2022-07-24T06:54:28;8.80;;;8.07;;
8331;SDS011;4203;48.144;14.118;2022-07-24T06:56:55;8.75;;;8.05;;
8331;SDS011;4203;48.144;14.118;2022-07-24T06:59:22;9.23;;;8.32;;
8331;SDS011;4203;48.144;14.118;2022-07-24T07:01:49;8.73;;;8.13;;
8331;SDS011;4203;48.144;14.118;2022-07-24T07:04:17;8.23;;;7.53;;
8331;SDS011;4203;48.144;14.118;2022-07-24T07:06:45;9.07;;;8.38;;
8331;SDS011;4203;48.144;14.118;2022-07-24T07:09:13;9.05;;;8.35;;
8331;SDS011;4203;48.144;14.118;2022-07-24T07:11:40;8.88;;;8.15;;
8331;SDS011;4203;48.144;14.118;2022-07-24T07:14:07;8.57;;;7.95;;
8331;SDS011;4203;48.144;14.118;2022-07-24T07:16:34;8.13;;;7.32;;
8331;SDS011;4203;48.144;14.118;2022-07-24T07:19:01;10.60;;;7.88;;
8331;SDS011;4203;48.144;14.118;2022-07-24T07:21:28;8.68;;;7.97;;
8331;SDS011;4203;48.144;14.118;2022-07-24T07:23:57;8.65;;;7.95;;
8331;SDS011;4203;48.144;14.118;2022-07-24T07:26:25;9.00;;;8.20;;
8331;SDS011;4203;48.144;14.118;2022-07-24T07:28:52;9.15;;;8.40;;
8331;SDS011;4203;48.144;14.118;2022-07-24T07:31:19;9.25;;;8.45;;
8331;SDS011;4203;48.144;14.118;2022-07-24T07:33:49;8.35;;;7.55;;
8331;SDS011;4203;48.144;14.118;2022-07-24T07:36:16;8.45;;;7.72;;
8331;SDS011;4203;48.144;14.118;2022-07-24T07:38:44;8.10;;;7.40;;
8331;SDS011;4203;48.144;14.118;2022-07-24T07:41:13;9.40;;;7.55;;
8331;SDS011;4203;48.144;14.118;2022-07-24T07:43:40;7.65;;;7.05;;
8331;SDS011;4203;48.144;14.118;2022-07-24T07:46:07;7.57;;;6.95;;
8331;SDS011;4203;48.144;14.118;2022-07-24T07:48:34;8.30;;;7.55;;
8331;SDS011;4203;48.144;14.118;2022-07-24T07:51:01;8.25;;;7.55;;
8331;SDS011;4203;48.144;14.118;2022-07-24T07:53:29;7.63;;;7.03;;
8331;SDS011;4203;48.144;14.118;2022-07-24T07:55:56;8.40;;;7.70;;
8331;SDS011;4203;48.144;14.118;2022-07-24T07:58:24;8.38;;;7.40;;
8331;SDS011;4203;48.144;14.118;2022-07-24T08:00:52;7.95;;;7.25;;
8331;SDS011;4203;48.144;14.118;2022-07-24T08:03:20;8.55;;;7.85;;
8331;SDS011;4203;48.144;14.118;2022-07-24T08:05:47;8.55;;;7.68;;
8331;SDS011;4203;48.144;14.118;2022-07-24T08:08:14;8.23;;;7.53;;
8331;SDS011;4203;48.144;14.118;2022-07-24T08:10:42;8.18;;;7.57;;
8331;SDS011;4203;48.144;14.118;2022-07-24T08:13:09;8.50;;;7.78;;
8331;SDS011;4203;48.144;14.118;2022-07-24T08:15:41;8.52;;;7.82;;
8331;SDS011;4203;48.144;14.118;2022-07-24T08:18:08;8.55;;;7.85;;
8331;SDS011;4203;48.144;14.118;2022-07-24T08:20:36;7.35;;;6.75;;
8331;SDS011;4203;48.144;14.118;2022-07-24T08:23:03;8.75;;;8.05;;
8331;SDS011;4203;48.144;14.118;2022-07-24T08:25:30;8.13;;;7.43;;
8331;SDS011;4203;48.144;14.118;2022-07-24T08:27:57;9.27;;;8.45;;
8331;SDS011;4203;48.144;14.118;2022-07-24T08:30:24;8.27;;;7.68;;
8331;SDS011;4203;48.144;14.118;2022-07-24T08:32:53;8.02;;;7.43;;
8331;SDS011;4203;48.144;14.118;2022-07-24T08:35:20;7.70;;;7.10;;
8331;SDS011;4203;48.144;14.118;2022-07-24T08:37:48;7.70;;;7.10;;
8331;SDS011;4203;48.144;14.118;2022-07-24T08:40:16;7.60;;;7.00;;
8331;SDS011;4203;48.144;14.118;2022-07-24T08:42:43;7.40;;;6.90;;
8331;SDS011;4203;48.144;14.118;2022-07-24T08:45:10;8.05;;;7.40;;
8331;SDS011;4203;48.144;14.118;2022-07-24T08:47:38;9.00;;;8.05;;
8331;SDS011;4203;48.144;14.118;2022-07-24T08:50:08;7.57;;;6.93;;
8331;SDS011;4203;48.144;14.118;2022-07-24T08:52:37;7.75;;;6.95;;
8331;SDS011;4203;48.144;14.118;2022-07-24T08:55:05;8.65;;;7.50;;
8331;SDS011;4203;48.144;14.118;2022-07-24T08:57:33;8.13;;;7.43;;
8331;SDS011;4203;48.144;14.118;2022-07-24T09:00:00;8.35;;;7.72;;
8331;SDS011;4203;48.144;14.118;2022-07-24T09:02:27;7.80;;;7.15;;
8331;SDS011;4203;48.144;14.118;2022-07-24T09:04:58;6.93;;;6.47;;
8331;SDS011;4203;48.144;14.118;2022-07-24T09:07:28;13.70;;;6.93;;
8331;SDS011;4203;48.144;14.118;2022-07-24T09:10:00;7.65;;;6.95;;
8331;SDS011;4203;48.144;14.118;2022-07-24T09:12:32;6.82;;;6.32;;
8331;SDS011;4203;48.144;14.118;2022-07-24T09:15:05;7.28;;;6.60;;
8331;SDS011;4203;48.144;14.118;2022-07-24T09:17:46;9.10;;;8.50;;
8331;SDS011;4203;48.144;14.118;2022-07-24T09:20:14;7.40;;;6.43;;
8331;SDS011;4203;48.144;14.118;2022-07-24T09:22:43;6.60;;;6.10;;
8331;SDS011;4203;48.144;14.118;2022-07-24T09:25:14;6.63;;;6.13;;
8331;SDS011;4203;48.144;14.118;2022-07-24T09:27:47;6.60;;;6.05;;
8331;SDS011;4203;48.144;14.118;2022-07-24T09:30:27;5.47;;;5.18;;
8331;SDS011;4203;48.144;14.118;2022-07-24T09:32:57;6.43;;;5.93;;
8331;SDS011;4203;48.144;14.118;2022-07-24T09:35:29;6.30;;;5.80;;
8331;SDS011;4203;48.144;14.118;2022-07-24T09:37:59;6.00;;;5.60;;
8331;SDS011;4203;48.144;14.118;2022-07-24T09:40:28;5.75;;;4.97;;
8331;SDS011;4203;48.144;14.118;2022-07-24T09:45:51;6.28;;;5.80;;
8331;SDS011;4203;48.144;14.118;2022-07-24T09:48:21;5.68;;;5.28;;
8331;SDS011;4203;48.144;14.118;2022-07-24T09:50:50;6.43;;;5.82;;
8331;SDS011;4203;48.144;14.118;2022-07-24T09:53:20;5.95;;;5.50;;
8331;SDS011;4203;48.144;14.118;2022-07-24T09:55:58;6.00;;;5.60;;
8331;SDS011;4203;48.144;14.118;2022-07-24T09:58:26;6.53;;;6.07;;
8331;SDS011;4203;48.144;14.118;2022-07-24T10:00:55;6.45;;;5.90;;
8331;SDS011;4203;48.144;14.118;2022-07-24T10:03:25;5.93;;;5.53;;
8331;SDS011;4203;48.144;14.118;2022-07-24T10:05:55;5.68;;;5.28;;
8331;SDS011;4203;48.144;14.118;2022-07-24T10:08:25;5.78;;;5.38;;
8331;SDS011;4203;48.144;14.118;2022-07-24T10:10:53;5.97;;;5.43;;
8331;SDS011;4203;48.144;14.118;2022-07-24T10:13:21;6.13;;;5.63;;
8331;SDS011;4203;48.144;14.118;2022-07-24T10:15:53;5.93;;;5.50;;
8331;SDS011;4203;48.144;14.118;2022-07-24T10:18:46;12.68;;;5.88;;
8331;SDS011;4203;48.144;14.118;2022-07-24T10:21:15;6.10;;;5.70;;
8331;SDS011;4203;48.144;14.118;2022-07-24T10:23:53;6.22;;;5.70;;
8331;SDS011;4203;48.144;14.118;2022-07-24T10:26:43;6.30;;;5.80;;
8331;SDS011;4203;48.144;14.118;2022-07-24T10:29:12;6.72;;;6.10;;
8331;SDS011;4203;48.144;14.118;2022-07-24T10:31:42;6.25;;;5.85;;
8331;SDS011;4203;48.144;14.118;2022-07-24T10:34:11;8.05;;;7.45;;
8331;SDS011;4203;48.144;14.118;2022-07-24T10:36:48;6.68;;;6.28;;
8331;SDS011;4203;48.144;14.118;2022-07-24T10:39:25;6.85;;;6.25;;
8331;SDS011;4203;48.144;14.118;2022-07-24T10:42:00;6.45;;;6.00;;
8331;SDS011;4203;48.144;14.118;2022-07-24T10:44:28;6.65;;;5.78;;
8331;SDS011;4203;48.144;14.118;2022-07-24T10:46:56;6.22;;;5.60;;
8331;SDS011;4203;48.144;14.118;2022-07-24T10:49:38;5.90;;;5.50;;
8331;SDS011;4203;48.144;14.118;2022-07-24T10:52:10;8.68;;;6.05;;
8331;SDS011;4203;48.144;14.118;2022-07-24T10:54:48;6.07;;;5.53;;
8331;SDS011;4203;48.144;14.118;2022-07-24T10:57:15;6.63;;;6.00;;
8331;SDS011;4203;48.144;14.118;2022-07-24T10:59:42;6.70;;;6.10;;
8331;SDS011;4203;48.144;14.118;2022-07-24T11:02:26;6.35;;;5.85;;
8331;SDS011;4203;48.144;14.118;2022-07-24T11:10:47;5.97;;;5.47;;
8331;SDS011;4203;48.144;14.118;2022-07-24T11:16:18;5.82;;;5.15;;
8331;SDS011;4203;48.144;14.118;2022-07-24T11:22:02;6.03;;;5.57;;
8331;SDS011;4203;48.144;14.118;2022-07-24T11:24:31;5.75;;;5.35;;
8331;SDS011;4203;48.144;14.118;2022-07-24T11:27:03;6.18;;;5.78;;
8331;SDS011;4203;48.144;14.118;2022-07-24T11:29:33;5.70;;;5.40;;
8331;SDS011;4203;48.144;14.118;2022-07-24T11:32:02;6.15;;;5.70;;
8331;SDS011;4203;48.144;14.118;2022-07-24T11:34:32;5.32;;;5.03;;
8331;SDS011;4203;48.144;14.118;2022-07-24T11:37:01;6.07;;;5.57;;
8331;SDS011;4203;48.144;14.118;2022-07-24T11:39:33;5.53;;;5.05;;
8331;SDS011;4203;48.144;14.118;2022-07-24T11:42:04;6.10;;;5.70;;
8331;SDS011;4203;48.144;14.118;2022-07-24T11:44:33;6.63;;;5.03;;
8331;SDS011;4203;48.144;14.118;2022-07-24T11:47:05;5.32;;;5.03;;
8331;SDS011;4203;48.144;14.118;2022-07-24T11:49:38;7.57;;;6.15;;
8331;SDS011;4203;48.144;14.118;2022-07-24T11:52:19;6.22;;;5.55;;
8331;SDS011;4203;48.144;14.118;2022-07-24T11:54:47;8.50;;;5.45;;
8331;SDS011;4203;48.144;14.118;2022-07-24T11:57:18;5.35;;;5.05;;
8331;SDS011;4203;48.144;14.118;2022-07-24T11:59:47;5.90;;;5.40;;
8331;SDS011;4203;48.144;14.118;2022-07-24T12:02:16;5.75;;;5.28;;
8331;SDS011;4203;48.144;14.118;2022-07-24T12:04:44;6.05;;;5.55;;
8331;SDS011;4203;48.144;14.118;2022-07-24T12:07:14;6.03;;;5.53;;
8331;SDS011;4203;48.144;14.118;2022-07-24T12:09:46;5.93;;;5.43;;
8331;SDS011;4203;48.144;14.118;2022-07-24T12:12:23;5.75;;;4.75;;
8331;SDS011;4203;48.144;14.118;2022-07-24T12:14:53;5.60;;;5.10;;
8331;SDS011;4203;48.144;14.118;2022-07-24T12:17:28;6.18;;;5.68;;
8331;SDS011;4203;48.144;14.118;2022-07-24T12:19:56;5.65;;;5.25;;
8331;SDS011;4203;48.144;14.118;2022-07-24T12:22:26;5.20;;;4.53;;
8331;SDS011;4203;48.144;14.118;2022-07-24T12:24:55;5.45;;;4.78;;
8331;SDS011;4203;48.144;14.118;2022-07-24T12:27:40;6.05;;;5.55;;
8331;SDS011;4203;48.144;14.118;2022-07-24T12:30:21;5.55;;;5.15;;
8331;SDS011;4203;48.144;14.118;2022-07-24T12:32:55;5.20;;;4.80;;
8331;SDS011;4203;48.144;14.118;2022-07-24T12:35:25;6.35;;;5.85;;
8331;SDS011;4203;48.144;14.118;2022-07-24T12:37:53;5.30;;;4.80;;
8331;SDS011;4203;48.144;14.118;2022-07-24T12:40:24;5.45;;;5.15;;
8331;SDS011;4203;48.144;14.118;2022-07-24T12:42:58;5.55;;;5.15;;
8331;SDS011;4203;48.144;14.118;2022-07-24T12:45:27;5.55;;;5.20;;
8331;SDS011;4203;48.144;14.118;2022-07-24T12:48:10;5.30;;;5.00;;
8331;SDS011;4203;48.144;14.118;2022-07-24T12:51:04;7.05;;;5.15;;
8331;SDS011;4203;48.144;14.118;2022-07-24T12:53:34;5.05;;;4.70;;
8331;SDS011;4203;48.144;14.118;2022-07-24T12:56:03;5.53;;;5.10;;
8331;SDS011;4203;48.144;14.118;2022-07-24T12:58:49;5.45;;;5.07;;
8331;SDS011;4203;48.144;14.118;2022-07-24T13:01:17;6.65;;;4.97;;
8331;SDS011;4203;48.144;14.118;2022-07-24T13:03:49;5.63;;;5.03;;
8331;SDS011;4203;48.144;14.118;2022-07-24T13:06:29;5.03;;;4.63;;
8331;SDS011;4203;48.144;14.118;2022-07-24T13:08:58;6.35;;;5.95;;
8331;SDS011;4203;48.144;14.118;2022-07-24T13:11:25;4.80;;;4.40;;
8331;SDS011;4203;48.144;14.118;2022-07-24T13:13:54;5.03;;;4.50;;
8331;SDS011;4203;48.144;14.118;2022-07-24T13:16:21;5.20;;;4.90;;
8331;SDS011;4203;48.144;14.118;2022-07-24T13:18:49;4.65;;;4.43;;
8331;SDS011;4203;48.144;14.118;2022-07-24T13:21:17;4.80;;;4.50;;
8331;SDS011;4203;48.144;14.118;2022-07-24T13:23:45;5.13;;;4.82;;
8331;SDS011;4203;48.144;14.118;2022-07-24T13:26:12;5.03;;;4.63;;
8331;SDS011;4203;48.144;14.118;2022-07-24T13:28:39;4.68;;;4.28;;
8331;SDS011;4203;48.144;14.118;2022-07-24T13:31:08;5.18;;;4.78;;
8331;SDS011;4203;48.144;14.118;2022-07-24T13:33:35;5.25;;;4.95;;
8331;SDS011;4203;48.144;14.118;2022-07-24T13:36:03;5.22;;;4.93;;
8331;SDS011;4203;48.144;14.118;2022-07-24T13:38:30;4.95;;;4.65;;
8331;SDS011;4203;48.144;14.118;2022-07-24T13:40:58;5.05;;;4.60;;
8331;SDS011;4203;48.144;14.118;2022-07-24T13:43:26;5.07;;;4.68;;
8331;SDS011;4203;48.144;14.118;2022-07-24T13:45:53;5.13;;;4.80;;
8331;SDS011;4203;48.144;14.118;2022-07-24T13:48:21;4.80;;;4.50;;
8331;SDS011;4203;48.144;14.118;2022-07-24T13:50:49;5.40;;;4.93;;
8331;SDS011;4203;48.144;14.118;2022-07-24T13:53:16;5.20;;;4.75;;
8331;SDS011;4203;48.144;14.118;2022-07-24T13:55:43;5.20;;;4.70;;
8331;SDS011;4203;48.144;14.118;2022-07-24T13:58:11;4.88;;;4.47;;
8331;SDS011;4203;48.144;14.118;2022-07-24T14:00:39;5.40;;;4.97;;
8331;SDS011;4203;48.144;14.118;2022-07-24T14:03:06;5.15;;;4.75;;
8331;SDS011;4203;48.144;14.118;2022-07-24T14:05:35;5.40;;;5.00;;
8331;SDS011;4203;48.144;14.118;2022-07-24T14:08:02;4.90;;;4.40;;
8331;SDS011;4203;48.144;14.118;2022-07-24T14:10:29;5.35;;;4.85;;
8331;SDS011;4203;48.144;14.118;2022-07-24T14:12:57;4.38;;;4.13;;
8331;SDS011;4203;48.144;14.118;2022-07-24T14:15:24;5.18;;;4.78;;
8331;SDS011;4203;48.144;14.118;2022-07-24T14:17:52;4.68;;;4.32;;
8331;SDS011;4203;48.144;14.118;2022-07-24T14:20:19;4.38;;;3.97;;
8331;SDS011;4203;48.144;14.118;2022-07-24T14:22:48;4.60;;;4.32;;
8331;SDS011;4203;48.144;14.118;2022-07-24T14:25:15;4.47;;;3.83;;
8331;SDS011;4203;48.144;14.118;2022-07-24T14:27:42;5.82;;;5.25;;
8331;SDS011;4203;48.144;14.118;2022-07-24T14:30:09;4.65;;;4.35;;
8331;SDS011;4203;48.144;14.118;2022-07-24T14:32:37;4.80;;;4.50;;
8331;SDS011;4203;48.144;14.118;2022-07-24T14:35:05;4.70;;;4.30;;
8331;SDS011;4203;48.144;14.118;2022-07-24T14:37:34;4.45;;;4.15;;
8331;SDS011;4203;48.144;14.118;2022-07-24T14:40:03;4.47;;;4.18;;
8331;SDS011;4203;48.144;14.118;2022-07-24T14:42:32;4.60;;;4.30;;
8331;SDS011;4203;48.144;14.118;2022-07-24T14:45:00;4.70;;;4.40;;
8331;SDS011;4203;48.144;14.118;2022-07-24T14:47:27;4.40;;;4.20;;
8331;SDS011;4203;48.144;14.118;2022-07-24T14:49:55;5.15;;;4.70;;
8331;SDS011;4203;48.144;14.118;2022-07-24T14:52:22;4.60;;;4.30;;
8331;SDS011;4203;48.144;14.118;2022-07-24T14:54:49;4.53;;;4.20;;
8331;SDS011;4203;48.144;14.118;2022-07-24T14:57:18;4.38;;;4.07;;
8331;SDS011;4203;48.144;14.118;2022-07-24T14:59:45;5.07;;;4.78;;
8331;SDS011;4203;48.144;14.118;2022-07-24T15:02:12;5.05;;;4.75;;
8331;SDS011;4203;48.144;14.118;2022-07-24T15:04:40;4.97;;;4.45;;
8331;SDS011;4203;48.144;14.118;2022-07-24T15:07:07;4.97;;;4.63;;
8331;SDS011;4203;48.144;14.118;2022-07-24T15:09:35;5.07;;;4.65;;
8331;SDS011;4203;48.144;14.118;2022-07-24T15:12:03;4.88;;;4.50;;
8331;SDS011;4203;48.144;14.118;2022-07-24T15:14:32;4.18;;;3.97;;
8331;SDS011;4203;48.144;14.118;2022-07-24T15:16:59;5.22;;;4.82;;
8331;SDS011;4203;48.144;14.118;2022-07-24T15:19:27;4.80;;;4.50;;
8331;SDS011;4203;48.144;14.118;2022-07-24T15:21:54;5.60;;;5.03;;
8331;SDS011;4203;48.144;14.118;2022-07-24T15:24:21;5.32;;;4.93;;